Time;durP1;ratioP1;P1;durP2;ratioP2;P2;SDS_P1;SDS_P2;PMS_P1;PMS_P2;Temp;Humidity;BMP_temperature;BMP_pressure;BME280_temperature;BME280_humidity;BME280_pressure;Samples;Min_cycle;Max_cycle;Signal;HPM_P1;HPM_P2
2023/11/04 00:02:16;;;;;;;0.75;0.40;;;8.20;99.90;;;;;;4913326;28;87186;-76
2023/11/04 00:04:43;;;;;;;0.40;0.40;;;8.20;99.90;;;;;;4929618;28;87761;-77
2023/11/04 00:07:09;;;;;;;1.50;0.40;;;8.30;99.90;;;;;;4910900;28;87797;-76
2023/11/04 00:09:34;;;;;;;1.95;0.45;;;8.40;99.90;;;;;;4930823;28;87257;-73
2023/11/04 00:12:00;;;;;;;2.33;0.95;;;8.40;99.90;;;;;;4934091;28;86374;-74
2023/11/04 00:14:26;;;;;;;1.42;0.40;;;8.50;99.90;;;;;;4918215;28;89918;-76
2023/11/04 00:16:51;;;;;;;3.38;0.60;;;8.60;99.90;;;;;;4940222;28;87470;-74
2023/11/04 00:19:18;;;;;;;1.52;0.45;;;8.60;99.90;;;;;;4937904;28;88469;-73
2023/11/04 00:21:43;;;;;;;3.10;0.63;;;8.70;99.90;;;;;;4933989;28;87226;-73
2023/11/04 00:24:10;;;;;;;2.63;0.40;;;8.70;99.90;;;;;;4938740;28;87759;-74
2023/11/04 00:26:36;;;;;;;0.50;0.40;;;8.70;99.90;;;;;;4919109;28;89153;-78
2023/11/04 00:29:02;;;;;;;2.33;0.43;;;8.80;99.90;;;;;;4935045;28;87392;-75
2023/11/04 00:31:30;;;;;;;4.22;0.75;;;8.80;99.90;;;;;;4933825;28;88755;-77
2023/11/04 00:33:56;;;;;;;1.63;0.60;;;8.90;99.90;;;;;;4918284;28;89417;-72
2023/11/04 00:36:22;;;;;;;0.88;0.40;;;8.90;99.90;;;;;;4920128;28;88942;-74
2023/11/04 00:38:47;;;;;;;0.47;0.40;;;8.90;99.90;;;;;;4921362;28;87649;-73
2023/11/04 00:41:13;;;;;;;0.85;0.70;;;9.00;99.90;;;;;;4940359;28;87121;-73
2023/11/04 00:43:39;;;;;;;0.50;0.35;;;9.00;99.90;;;;;;4918894;28;88882;-73
2023/11/04 00:46:05;;;;;;;0.80;0.50;;;9.00;99.90;;;;;;4936252;28;87702;-73
2023/11/04 00:48:30;;;;;;;2.58;0.77;;;9.00;99.90;;;;;;4919773;28;92434;-73
2023/11/04 00:50:56;;;;;;;2.30;0.50;;;9.00;99.90;;;;;;4921217;28;88414;-73
2023/11/04 00:53:22;;;;;;;3.65;0.70;;;9.00;99.90;;;;;;4922545;28;90089;-72
2023/11/04 00:55:48;;;;;;;1.80;0.65;;;9.00;99.90;;;;;;4917861;28;88485;-75
2023/11/04 00:58:16;;;;;;;1.77;0.80;;;9.00;99.90;;;;;;4933648;28;87361;-74
2023/11/04 01:00:42;;;;;;;1.02;0.60;;;9.10;99.90;;;;;;4928244;28;89508;-75
2023/11/04 01:03:07;;;;;;;2.20;0.75;;;9.10;99.90;;;;;;4933832;28;87450;-74
2023/11/04 01:05:33;;;;;;;2.42;0.80;;;9.00;99.90;;;;;;4937017;28;87749;-76
2023/11/04 01:07:59;;;;;;;1.48;0.75;;;9.10;99.90;;;;;;4935671;28;88353;-76
2023/11/04 01:10:25;;;;;;;3.30;0.80;;;9.10;99.90;;;;;;4937647;28;87095;-72
2023/11/04 01:12:53;;;;;;;1.90;0.80;;;9.10;99.90;;;;;;4934061;28;87880;-73
2023/11/04 01:15:19;;;;;;;1.95;0.80;;;9.10;99.90;;;;;;4937279;28;87350;-73
2023/11/04 01:17:45;;;;;;;1.67;0.70;;;9.10;99.90;;;;;;4920671;28;87379;-73
2023/11/04 01:20:11;;;;;;;6.95;2.45;;;9.10;99.90;;;;;;4939206;28;87883;-72
2023/11/04 01:22:36;;;;;;;2.20;0.73;;;9.20;99.90;;;;;;4919801;28;88456;-73
2023/11/04 01:25:02;;;;;;;1.02;0.60;;;9.20;99.90;;;;;;4932307;28;86831;-73
2023/11/04 01:27:28;;;;;;;4.18;0.77;;;9.20;99.90;;;;;;4933163;28;87419;-73
2023/11/04 01:29:54;;;;;;;3.45;0.88;;;9.20;99.90;;;;;;4935983;28;86848;-73
2023/11/04 01:32:20;;;;;;;6.10;1.77;;;9.30;99.90;;;;;;4933983;28;88344;-73
2023/11/04 01:34:45;;;;;;;1.08;0.73;;;9.30;99.90;;;;;;4917318;28;88571;-73
2023/11/04 01:37:11;;;;;;;1.58;0.80;;;9.30;99.90;;;;;;4917116;28;87605;-73
2023/11/04 01:39:36;;;;;;;2.05;0.60;;;9.30;99.90;;;;;;4936358;28;86991;-72
2023/11/04 01:42:08;;;;;;;1.23;0.65;;;9.30;99.90;;;;;;5784667;22;88272;-75
2023/11/04 01:44:34;;;;;;;7.28;0.73;;;9.30;99.90;;;;;;5471578;22;88342;-75
2023/11/04 01:47:00;;;;;;;0.57;0.50;;;9.30;99.90;;;;;;5070453;22;87449;-73
2023/11/04 01:49:27;;;;;;;1.15;0.65;;;9.30;99.90;;;;;;4976721;28;86479;-74
2023/11/04 01:51:54;;;;;;;2.05;0.77;;;9.30;99.90;;;;;;4958705;28;87592;-73
2023/11/04 01:54:21;;;;;;;2.03;0.88;;;9.30;99.90;;;;;;4975522;28;87162;-74
2023/11/04 01:56:47;;;;;;;2.55;1.13;;;9.30;99.90;;;;;;4959744;28;88232;-73
2023/11/04 01:59:16;;;;;;;4.45;0.80;;;9.30;99.90;;;;;;4972722;28;87711;-73
2023/11/04 02:01:45;;;;;;;2.95;1.17;;;9.30;99.90;;;;;;4975694;28;87020;-73
2023/11/04 02:04:12;;;;;;;1.58;0.93;;;9.30;99.90;;;;;;4976681;28;87427;-73
2023/11/04 02:06:38;;;;;;;1.38;1.00;;;9.30;99.90;;;;;;4956940;28;87270;-72
2023/11/04 02:09:04;;;;;;;1.45;0.70;;;9.30;99.90;;;;;;5730993;22;88529;-75
2023/11/04 02:21:43;;;;;;;3.28;1.20;;;9.30;99.90;;;;;;6016201;22;89514;-75
2023/11/04 02:26:37;;;;;;;6.82;1.33;;;9.20;99.90;;;;;;4926227;28;87249;-72
2023/11/04 02:29:03;;;;;;;7.53;1.50;;;9.20;99.90;;;;;;4927352;28;87533;-73
2023/11/04 02:31:28;;;;;;;5.70;1.73;;;9.20;99.90;;;;;;4927082;28;89175;-72
2023/11/04 02:33:54;;;;;;;7.10;2.22;;;9.20;99.90;;;;;;4925483;28;89194;-72
2023/11/04 02:36:19;;;;;;;3.47;1.98;;;9.20;99.90;;;;;;4927391;28;87755;-72
2023/11/04 02:46:23;;;;;;;5.90;1.75;;;9.20;99.90;;;;;;4940464;28;88046;-74
2023/11/04 02:48:48;;;;;;;5.05;2.65;;;9.30;99.90;;;;;;4926963;28;87451;-74
2023/11/04 02:51:14;;;;;;;4.00;1.70;;;9.30;99.90;;;;;;4950146;28;87219;-76
2023/11/04 02:53:40;;;;;;;4.53;1.60;;;9.30;99.90;;;;;;4923632;28;89218;-74
2023/11/04 02:56:06;;;;;;;6.95;2.00;;;9.30;99.90;;;;;;4957127;28;86606;-72
2023/11/04 02:58:31;;;;;;;7.70;2.03;;;9.30;99.90;;;;;;4940852;28;87588;-73
2023/11/04 03:00:57;;;;;;;4.53;2.17;;;9.30;99.90;;;;;;4945994;28;87033;-72
2023/11/04 03:03:23;;;;;;;5.43;1.70;;;9.30;99.90;;;;;;4939749;28;88433;-73
2023/11/04 03:05:49;;;;;;;3.70;1.60;;;9.30;99.90;;;;;;4955660;28;87408;-72
2023/11/04 03:08:14;;;;;;;6.80;2.03;;;9.30;99.90;;;;;;4937883;28;87194;-73
2023/11/04 03:10:40;;;;;;;6.15;1.65;;;9.30;99.90;;;;;;4951644;28;88948;-73
2023/11/04 03:13:06;;;;;;;10.32;2.03;;;9.30;99.90;;;;;;4937188;28;90249;-73
2023/11/04 03:20:39;;;;;;;7.07;2.38;;;9.40;99.90;;;;;;4899602;28;87491;-73
2023/11/04 03:23:04;;;;;;;5.80;1.73;;;9.40;99.90;;;;;;4900601;28;88065;-72
2023/11/04 03:25:30;;;;;;;8.57;2.22;;;9.50;99.90;;;;;;4926203;28;87005;-72
2023/11/04 03:27:56;;;;;;;4.53;1.85;;;9.50;99.90;;;;;;4899570;28;88398;-73
2023/11/04 03:30:22;;;;;;;8.77;2.13;;;9.50;99.90;;;;;;4903826;28;91235;-72
2023/11/04 03:32:47;;;;;;;5.72;1.85;;;9.60;99.90;;;;;;4904694;28;87133;-72
2023/11/04 04:40:37;;;;;;;7.85;1.90;;;9.90;99.90;;;;;;5055491;22;88785;-72
2023/11/04 04:43:02;;;;;;;4.32;1.63;;;9.90;99.90;;;;;;4970822;28;87141;-74
2023/11/04 04:45:28;;;;;;;5.07;1.42;;;9.80;99.90;;;;;;4970862;28;86704;-73
2023/11/04 04:47:54;;;;;;;7.30;1.98;;;9.80;99.90;;;;;;4971392;28;87584;-73
2023/11/04 04:50:19;;;;;;;10.30;2.35;;;9.80;99.90;;;;;;4972397;28;87086;-73
2023/11/04 04:52:47;;;;;;;6.13;1.50;;;9.90;99.90;;;;;;4968375;28;89039;-74
2023/11/04 04:55:14;;;;;;;9.27;1.73;;;9.80;99.90;;;;;;4970750;28;87567;-73
2023/11/04 05:02:50;;;;;;;7.55;1.73;;;9.80;99.90;;;;;;5151250;22;88387;-79
2023/11/04 05:05:16;;;;;;;3.50;1.60;;;9.80;99.90;;;;;;4967798;28;87593;-77
2023/11/04 05:07:42;;;;;;;4.30;1.58;;;9.80;99.90;;;;;;4964046;28;88457;-75
2023/11/04 05:10:11;;;;;;;4.70;1.60;;;9.80;99.90;;;;;;4961788;28;86804;-77
2023/11/04 05:12:37;;;;;;;5.18;2.28;;;9.80;99.90;;;;;;4965286;28;88409;-75
2023/11/04 05:15:03;;;;;;;6.75;1.50;;;9.70;99.90;;;;;;4966092;28;87006;-77
2023/11/04 05:17:29;;;;;;;4.57;1.30;;;9.70;99.90;;;;;;4965442;28;88392;-77
2023/11/04 05:19:56;;;;;;;6.85;1.40;;;9.70;99.90;;;;;;4965312;28;87479;-75
2023/11/04 05:22:23;;;;;;;3.05;1.48;;;9.60;99.90;;;;;;4964384;28;88042;-76
2023/11/04 05:24:49;;;;;;;4.70;1.42;;;9.60;99.90;;;;;;4964350;28;88246;-79
2023/11/04 05:27:16;;;;;;;2.97;1.33;;;9.60;99.90;;;;;;4965799;28;88287;-76
2023/11/04 05:29:42;;;;;;;5.03;1.63;;;9.50;99.90;;;;;;4967264;28;87326;-77
2023/11/04 05:32:08;;;;;;;3.28;1.33;;;9.50;99.90;;;;;;4965865;28;90077;-75
2023/11/04 05:34:34;;;;;;;3.15;1.50;;;9.50;99.90;;;;;;4967029;28;89603;-76
2023/11/04 05:36:59;;;;;;;5.18;1.48;;;9.50;99.90;;;;;;4967895;28;87647;-75
2023/11/04 05:39:25;;;;;;;3.28;1.45;;;9.40;99.90;;;;;;4966544;28;87154;-75
2023/11/04 05:41:52;;;;;;;3.30;0.90;;;9.40;99.90;;;;;;4963783;28;87998;-75
2023/11/04 05:44:17;;;;;;;4.78;1.10;;;9.40;99.90;;;;;;4965342;28;87350;-76
2023/11/04 05:46:47;;;;;;;2.42;1.40;;;9.30;99.90;;;;;;4964211;28;87638;-75
2023/11/04 05:49:13;;;;;;;2.88;1.10;;;9.20;99.90;;;;;;4965452;28;87239;-77
2023/11/04 05:51:39;;;;;;;4.07;1.27;;;9.20;99.90;;;;;;4966415;28;89303;-77
2023/11/04 05:54:04;;;;;;;4.80;1.08;;;9.10;99.90;;;;;;4969828;28;87341;-75
2023/11/04 05:56:30;;;;;;;7.68;1.10;;;9.10;99.90;;;;;;4970814;28;87348;-78
2023/11/04 05:58:58;;;;;;;1.33;0.90;;;9.00;99.90;;;;;;4963588;28;87552;-75
2023/11/04 06:01:24;;;;;;;4.43;1.13;;;9.00;99.90;;;;;;4964976;28;89907;-75
2023/11/04 06:03:51;;;;;;;5.68;1.55;;;8.90;99.90;;;;;;4965335;28;87734;-78
2023/11/04 06:06:20;;;;;;;5.07;0.93;;;8.80;99.90;;;;;;4965669;28;88140;-75
2023/11/04 06:08:47;;;;;;;4.53;0.98;;;8.80;99.90;;;;;;4963490;28;87579;-75
2023/11/04 06:11:13;;;;;;;5.15;0.80;;;8.70;99.90;;;;;;4963813;28;90595;-78
2023/11/04 06:13:39;;;;;;;4.03;0.80;;;8.70;99.90;;;;;;4965538;28;89110;-77
2023/11/04 06:16:06;;;;;;;3.58;0.80;;;8.60;99.90;;;;;;4966424;28;87235;-75
2023/11/04 06:18:32;;;;;;;2.88;1.08;;;8.60;99.90;;;;;;4964609;28;87191;-76
2023/11/04 06:20:57;;;;;;;5.55;0.90;;;8.50;99.90;;;;;;4963716;28;91872;-77
2023/11/04 06:46:20;;;;;;;9.00;1.08;;;8.20;99.90;;;;;;4937121;28;87855;-72
2023/11/04 06:56:33;;;;;;;4.88;1.10;;;8.00;99.90;;;;;;5643718;22;88834;-75
2023/11/04 07:04:06;;;;;;;9.43;1.50;;;8.00;99.90;;;;;;5148765;22;88544;-75
2023/11/04 07:09:02;;;;;;;6.95;1.55;;;8.00;99.90;;;;;;5672286;22;88533;-73
2023/11/04 07:11:28;;;;;;;7.93;1.13;;;8.00;99.90;;;;;;5365114;22;89241;-75
2023/11/04 07:21:33;;;;;;;14.18;1.52;;;8.10;99.90;;;;;;4989018;22;88845;-73
2023/11/04 07:23:58;;;;;;;6.03;1.05;;;8.20;99.90;;;;;;4955914;28;89815;-73
2023/11/04 07:34:02;;;;;;;5.03;2.00;;;8.40;99.90;;;;;;5164454;22;88025;-73
2023/11/04 07:39:02;;;;;;;7.25;1.35;;;8.50;99.90;;;;;;5294949;22;87849;-76
2023/11/04 07:41:28;;;;;;;2.83;1.10;;;8.50;99.90;;;;;;4967081;28;88177;-76
2023/11/04 07:43:54;;;;;;;4.07;1.17;;;8.60;99.90;;;;;;4945336;28;88048;-74
2023/11/04 07:46:23;;;;;;;8.55;2.35;;;8.70;99.90;;;;;;4943249;28;88651;-75
2023/11/04 07:48:48;;;;;;;11.65;1.20;;;8.70;99.90;;;;;;4946025;28;87809;-74
2023/11/04 07:51:14;;;;;;;8.50;1.77;;;8.80;99.90;;;;;;4951879;28;87742;-75
2023/11/04 07:53:41;;;;;;;4.72;1.30;;;8.90;99.90;;;;;;4947896;28;87604;-76
2023/11/04 07:56:12;;;;;;;6.63;0.85;;;8.90;99.90;;;;;;4931814;28;87666;-75
2023/11/04 07:58:37;;;;;;;5.30;1.88;;;9.00;99.90;;;;;;4948526;28;87949;-76
2023/11/04 08:01:03;;;;;;;3.30;0.70;;;9.10;99.90;;;;;;4960145;28;89550;-76
2023/11/04 08:37:12;;;;;;;3.80;0.60;;;10.10;99.90;;;;;;5581034;22;89661;-77
2023/11/04 09:05:32;;;;;;;4.57;0.80;;;10.70;99.90;;;;;;6054278;22;90748;-75
2023/11/04 09:07:58;;;;;;;6.72;0.90;;;10.70;99.90;;;;;;4969515;28;87170;-77
2023/11/04 09:18:10;;;;;;;4.28;0.50;;;10.80;99.90;;;;;;5390243;22;90539;-73
2023/11/04 09:20:35;;;;;;;4.85;0.75;;;10.80;99.90;;;;;;4956461;28;86972;-74
2023/11/04 09:23:01;;;;;;;6.68;0.80;;;10.80;99.90;;;;;;4955494;28;93062;-74
2023/11/04 09:25:27;;;;;;;8.27;0.77;;;10.80;99.90;;;;;;4960663;28;87581;-74
2023/11/04 09:27:53;;;;;;;4.32;0.80;;;10.80;99.90;;;;;;4964000;28;88158;-75
2023/11/04 09:30:19;;;;;;;4.90;0.70;;;10.80;99.90;;;;;;4957735;28;87328;-73
2023/11/04 09:32:45;;;;;;;7.28;0.70;;;10.80;99.90;;;;;;4956724;28;87021;-75
2023/11/04 09:35:12;;;;;;;8.65;0.90;;;10.70;99.90;;;;;;4960025;28;88118;-74
2023/11/04 09:37:44;;;;;;;4.35;0.82;;;10.60;99.90;;;;;;4958279;28;86932;-73
2023/11/04 09:40:13;;;;;;;7.32;1.17;;;10.60;99.90;;;;;;4946811;28;89161;-74
2023/11/04 09:42:41;;;;;;;5.10;1.40;;;10.50;99.90;;;;;;4943052;28;88011;-73
2023/11/04 09:45:10;;;;;;;4.95;0.88;;;10.50;99.90;;;;;;4949025;28;87009;-74
2023/11/04 09:47:36;;;;;;;5.22;0.82;;;10.40;99.90;;;;;;4955759;28;87826;-75
2023/11/04 09:50:02;;;;;;;6.07;0.63;;;10.30;99.90;;;;;;4935103;28;92686;-75
2023/11/04 09:52:30;;;;;;;3.47;0.57;;;10.30;99.90;;;;;;4957778;28;89131;-75
2023/11/04 09:54:59;;;;;;;10.05;1.15;;;10.30;99.90;;;;;;4939861;28;88787;-77
2023/11/04 09:57:26;;;;;;;12.65;1.30;;;10.20;99.90;;;;;;4933646;28;87899;-75
2023/11/04 09:59:52;;;;;;;13.20;1.25;;;10.20;99.90;;;;;;4930770;28;88494;-74
2023/11/04 10:02:18;;;;;;;6.15;1.02;;;10.10;99.90;;;;;;4934355;28;88654;-76
2023/11/04 10:04:43;;;;;;;17.58;1.63;;;10.10;99.90;;;;;;4932004;28;87758;-75
2023/11/04 10:07:09;;;;;;;3.58;0.50;;;10.10;99.90;;;;;;4933839;28;87595;-79
2023/11/04 10:09:35;;;;;;;3.45;0.95;;;10.00;99.90;;;;;;4930911;28;88073;-77
2023/11/04 10:12:03;;;;;;;11.50;1.20;;;10.00;99.90;;;;;;4935878;28;90490;-75
2023/11/04 10:14:28;;;;;;;7.68;1.90;;;10.00;99.90;;;;;;4940095;28;87767;-74
2023/11/04 10:16:54;;;;;;;8.15;1.30;;;10.00;99.90;;;;;;4932599;28;88626;-75
2023/11/04 10:19:21;;;;;;;9.15;1.50;;;9.90;99.90;;;;;;4931912;28;88096;-75
2023/11/04 10:21:48;;;;;;;6.35;0.77;;;9.90;99.90;;;;;;4940538;28;87603;-74
2023/11/04 10:24:15;;;;;;;5.10;0.95;;;9.90;99.90;;;;;;4940479;28;88473;-74
2023/11/04 10:26:43;;;;;;;5.85;1.42;;;9.90;99.90;;;;;;4938073;28;88086;-74
2023/11/04 10:29:09;;;;;;;5.18;1.00;;;9.80;99.90;;;;;;4942845;28;87492;-75
2023/11/04 10:31:35;;;;;;;5.63;1.10;;;9.80;99.90;;;;;;4941794;28;89561;-75
2023/11/04 10:34:04;;;;;;;8.38;1.35;;;9.80;99.90;;;;;;4936277;28;89415;-76
2023/11/04 10:36:32;;;;;;;6.13;0.88;;;9.80;99.90;;;;;;4925534;28;87624;-75
2023/11/04 10:39:04;;;;;;;7.40;1.20;;;9.80;99.90;;;;;;4929621;28;87885;-76
2023/11/04 10:41:43;;;;;;;6.68;1.02;;;9.80;99.90;;;;;;4934468;28;90648;-78
2023/11/04 10:44:15;;;;;;;8.00;1.45;;;9.90;99.90;;;;;;4936550;28;96277;-74
2023/11/04 10:46:58;;;;;;;7.18;1.30;;;10.00;99.90;;;;;;4934418;28;87906;-77
2023/11/04 10:49:35;;;;;;;4.18;0.82;;;10.00;99.90;;;;;;4947278;28;88386;-75
2023/11/04 10:52:09;;;;;;;11.38;0.82;;;10.10;99.90;;;;;;4942155;28;87587;-77
2023/11/04 10:54:54;;;;;;;6.93;0.88;;;10.10;99.90;;;;;;4952280;28;88660;-75
2023/11/04 10:57:35;;;;;;;6.00;0.90;;;10.20;99.90;;;;;;4963234;28;87774;-74
2023/11/04 11:00:19;;;;;;;6.15;0.80;;;10.20;99.90;;;;;;4959844;28;86207;-74
2023/11/04 11:02:46;;;;;;;6.40;0.80;;;10.30;99.90;;;;;;4966192;28;88973;-77
2023/11/04 11:05:12;;;;;;;4.85;0.80;;;10.30;99.90;;;;;;4957139;28;87131;-73
2023/11/04 11:07:45;;;;;;;4.13;0.60;;;10.30;99.90;;;;;;4961665;28;87926;-73
2023/11/04 11:10:14;;;;;;;5.20;0.75;;;10.30;99.90;;;;;;4961693;28;93587;-74
2023/11/04 11:12:49;;;;;;;5.10;0.63;;;10.30;99.90;;;;;;4959827;28;86867;-73
2023/11/04 11:15:15;;;;;;;2.85;0.65;;;10.30;99.90;;;;;;4956842;28;87643;-73
2023/11/04 11:17:42;;;;;;;6.85;0.88;;;10.40;99.90;;;;;;4958405;28;87663;-74
2023/11/04 11:20:27;;;;;;;5.63;0.60;;;10.40;99.90;;;;;;4960613;28;87359;-75
2023/11/04 11:23:08;;;;;;;6.72;0.70;;;10.40;99.90;;;;;;4987561;22;87834;-74
2023/11/04 11:25:39;;;;;;;3.90;0.50;;;10.40;99.90;;;;;;4986639;28;89746;-74
2023/11/04 11:28:19;;;;;;;2.83;0.47;;;10.50;99.90;;;;;;4987932;28;87213;-73
2023/11/04 11:33:27;;;;;;;2.22;0.50;;;10.50;99.90;;;;;;5134904;22;89941;-76
2023/11/04 11:35:54;;;;;;;1.87;0.50;;;10.50;99.90;;;;;;4973774;28;92604;-73
2023/11/04 11:38:20;;;;;;;2.50;0.30;;;10.50;99.90;;;;;;4976065;28;87949;-75
2023/11/04 11:40:47;;;;;;;2.35;0.43;;;10.50;99.90;;;;;;4976754;28;87598;-72
2023/11/04 11:43:13;;;;;;;3.85;0.40;;;10.50;99.90;;;;;;4968733;28;89516;-73
2023/11/04 11:45:39;;;;;;;1.90;0.38;;;10.50;99.90;;;;;;4963371;28;89666;-75
2023/11/04 11:48:05;;;;;;;2.47;0.50;;;10.50;99.90;;;;;;4969662;28;87563;-73
2023/11/04 11:50:38;;;;;;;0.60;0.30;;;10.50;99.90;;;;;;4967823;28;87053;-74
2023/11/04 11:53:04;;;;;;;4.75;0.70;;;10.60;99.90;;;;;;4970645;28;91187;-74
2023/11/04 11:55:30;;;;;;;0.80;0.30;;;10.60;99.90;;;;;;4968540;28;88190;-73
2023/11/04 11:57:58;;;;;;;0.57;0.28;;;10.60;99.90;;;;;;4966011;28;87999;-74
2023/11/04 12:00:23;;;;;;;0.93;0.60;;;10.60;99.90;;;;;;4966734;28;87821;-74
2023/11/04 12:02:51;;;;;;;1.65;0.30;;;10.60;99.90;;;;;;4970614;28;87363;-73
2023/11/04 12:05:17;;;;;;;3.10;0.40;;;10.60;99.90;;;;;;4966659;28;89776;-76
2023/11/04 12:07:43;;;;;;;0.68;0.20;;;10.70;99.90;;;;;;4969513;28;87488;-73
2023/11/04 12:10:09;;;;;;;2.08;0.25;;;10.70;99.90;;;;;;4969708;28;86944;-74
2023/11/04 12:12:38;;;;;;;0.35;0.20;;;10.70;99.90;;;;;;5173877;22;89816;-74
2023/11/04 12:15:10;;;;;;;0.90;0.20;;;10.70;99.90;;;;;;4970842;28;87471;-73
2023/11/04 12:17:37;;;;;;;0.20;0.13;;;10.70;99.90;;;;;;4974203;28;87191;-75
2023/11/04 12:20:09;;;;;;;0.55;0.20;;;10.70;99.90;;;;;;4967128;28;87434;-75
2023/11/04 12:22:35;;;;;;;0.30;0.30;;;10.70;99.90;;;;;;4973863;28;89482;-77
2023/11/04 12:25:02;;;;;;;0.30;0.20;;;10.70;99.90;;;;;;4964626;28;92642;-76
2023/11/04 12:27:27;;;;;;;0.50;0.20;;;10.70;99.90;;;;;;4953012;28;87678;-79
2023/11/04 12:29:58;;;;;;;0.28;0.10;;;10.80;99.90;;;;;;4950252;28;88066;-71
2023/11/04 12:32:24;;;;;;;1.80;0.10;;;10.80;99.90;;;;;;4952352;28;88712;-75
2023/11/04 12:34:52;;;;;;;2.22;0.43;;;10.90;99.90;;;;;;4954269;28;88453;-73
2023/11/04 12:37:18;;;;;;;0.82;0.52;;;10.90;99.90;;;;;;4970523;28;87269;-81
2023/11/04 12:39:44;;;;;;;0.77;0.28;;;10.90;99.90;;;;;;4944663;28;88222;-77
2023/11/04 12:42:09;;;;;;;1.65;0.25;;;11.00;99.90;;;;;;4946593;28;88011;-75
2023/11/04 12:44:38;;;;;;;0.38;0.30;;;11.00;99.90;;;;;;4947644;28;88005;-74
2023/11/04 12:47:07;;;;;;;1.27;0.30;;;11.00;99.90;;;;;;4946147;28;88538;-76
2023/11/04 12:49:37;;;;;;;1.85;0.20;;;11.00;99.90;;;;;;4950077;28;88496;-75
2023/11/04 12:52:25;;;;;;;0.45;0.20;;;11.10;99.90;;;;;;4948773;28;87966;-77
2023/11/04 12:54:51;;;;;;;0.35;0.20;;;11.10;99.90;;;;;;4946345;28;91661;-75
2023/11/04 12:57:17;;;;;;;0.25;0.20;;;11.10;99.90;;;;;;4950457;28;87733;-75
2023/11/04 12:59:42;;;;;;;1.65;0.17;;;11.10;99.90;;;;;;4946213;28;88450;-76
2023/11/04 13:02:08;;;;;;;3.35;0.40;;;11.20;99.90;;;;;;4950289;28;88533;-75
2023/11/04 13:04:34;;;;;;;0.90;0.20;;;11.20;99.90;;;;;;4946830;28;89951;-74
2023/11/04 13:07:03;;;;;;;0.15;0.10;;;11.20;99.90;;;;;;4949045;28;88533;-75
2023/11/04 13:09:30;;;;;;;0.20;0.20;;;11.30;99.90;;;;;;4940643;28;90380;-74
2023/11/04 13:11:59;;;;;;;0.20;0.17;;;11.30;99.90;;;;;;4946746;28;92822;-75
2023/11/04 13:14:26;;;;;;;0.73;0.10;;;11.30;99.90;;;;;;4963152;28;92497;-74
2023/11/04 13:16:54;;;;;;;0.30;0.20;;;11.30;99.90;;;;;;4948441;28;87772;-75
2023/11/04 13:19:25;;;;;;;0.10;0.10;;;11.30;99.90;;;;;;4949053;28;90573;-75
2023/11/04 13:21:51;;;;;;;1.00;0.20;;;11.30;99.90;;;;;;4944525;28;89909;-76
2023/11/04 13:24:18;;;;;;;0.75;0.10;;;11.40;99.90;;;;;;4946177;28;88313;-76
2023/11/04 13:26:44;;;;;;;0.57;0.15;;;11.40;99.90;;;;;;4945825;28;87832;-75
2023/11/04 13:29:10;;;;;;;0.10;0.10;;;11.40;99.90;;;;;;4953729;28;90419;-76
2023/11/04 13:31:36;;;;;;;0.30;0.20;;;11.50;99.90;;;;;;4937488;28;88609;-76
2023/11/04 13:34:08;;;;;;;1.88;0.20;;;11.50;99.90;;;;;;4911428;28;91165;-78
2023/11/04 13:36:37;;;;;;;1.70;0.37;;;11.50;99.90;;;;;;4926518;28;89461;-75
2023/11/04 13:41:52;;;;;;;0.50;0.30;;;11.50;99.90;;;;;;5370532;22;88586;-71
2023/11/04 13:44:18;;;;;;;0.40;0.30;;;11.50;99.90;;;;;;4941125;28;91143;-72
2023/11/04 13:46:45;;;;;;;1.27;0.60;;;11.40;99.90;;;;;;4934312;28;87538;-71
2023/11/04 13:49:11;;;;;;;3.33;0.40;;;11.40;99.90;;;;;;4935479;28;88471;-72
2023/11/04 13:51:39;;;;;;;1.77;0.70;;;11.40;99.90;;;;;;4927164;28;91075;-72
2023/11/04 13:54:05;;;;;;;2.28;0.40;;;11.30;99.90;;;;;;4930540;28;88689;-71
2023/11/04 13:56:34;;;;;;;1.42;0.70;;;11.30;99.90;;;;;;4927967;28;88149;-75
2023/11/04 13:59:03;;;;;;;0.45;0.38;;;11.30;99.90;;;;;;4931361;28;88301;-72
2023/11/04 14:01:29;;;;;;;1.85;0.70;;;11.30;99.90;;;;;;4925175;28;92426;-71
2023/11/04 14:03:54;;;;;;;1.10;0.60;;;11.30;99.90;;;;;;4941395;28;92485;-71
2023/11/04 14:06:20;;;;;;;0.43;0.40;;;11.30;99.90;;;;;;4936562;28;88009;-72
2023/11/04 14:08:46;;;;;;;2.67;0.50;;;11.30;99.90;;;;;;4940661;28;90694;-72
2023/11/04 14:11:27;;;;;;;0.93;0.70;;;11.30;99.90;;;;;;4939413;28;89997;-75
2023/11/04 14:13:52;;;;;;;0.65;0.30;;;11.30;99.90;;;;;;4950635;28;91319;-72
2023/11/04 14:16:18;;;;;;;3.88;0.40;;;11.40;99.90;;;;;;4924794;28;87735;-73
2023/11/04 14:18:44;;;;;;;0.80;0.50;;;11.40;99.90;;;;;;4928051;28;90539;-71
2023/11/04 14:21:09;;;;;;;1.23;0.40;;;11.50;99.90;;;;;;4927638;28;91240;-72
2023/11/04 14:23:36;;;;;;;0.60;0.32;;;11.50;99.90;;;;;;4933371;28;91725;-74
2023/11/04 14:26:02;;;;;;;1.15;0.38;;;11.60;99.90;;;;;;4922462;28;89565;-72
2023/11/04 14:28:27;;;;;;;0.55;0.20;;;11.80;99.90;;;;;;4922984;28;89575;-72
2023/11/04 14:30:53;;;;;;;1.75;0.55;;;12.00;99.90;;;;;;4922738;28;91565;-73
2023/11/04 14:33:20;;;;;;;0.68;0.20;;;12.40;99.90;;;;;;4933713;28;88806;-73
2023/11/04 14:35:46;;;;;;;2.95;0.30;;;12.90;99.90;;;;;;4932373;28;92213;-73
2023/11/04 14:38:13;;;;;;;1.70;0.35;;;13.30;99.90;;;;;;4932338;28;90355;-74
2023/11/04 14:40:39;;;;;;;0.63;0.20;;;13.80;99.90;;;;;;4930699;28;91088;-72
2023/11/04 14:43:05;;;;;;;1.90;0.38;;;14.20;99.90;;;;;;4930337;28;92119;-73
2023/11/04 14:45:31;;;;;;;1.17;0.30;;;14.60;99.90;;;;;;4932298;28;88274;-74
2023/11/04 14:48:00;;;;;;;1.60;0.60;;;15.00;99.90;;;;;;4930700;28;90533;-69
2023/11/04 14:50:25;;;;;;;1.25;0.20;;;15.40;99.90;;;;;;4938050;28;93030;-72
2023/11/04 14:52:52;;;;;;;6.82;0.63;;;15.50;99.90;;;;;;4927241;28;92207;-74
2023/11/04 14:55:18;;;;;;;1.63;0.40;;;15.60;99.80;;;;;;4931472;28;87226;-73
2023/11/04 14:57:46;;;;;;;1.98;0.30;;;15.70;99.60;;;;;;4930682;28;89660;-72
2023/11/04 15:00:13;;;;;;;1.17;0.30;;;15.80;99.70;;;;;;4930552;28;91569;-72
2023/11/04 15:02:40;;;;;;;0.90;0.28;;;15.70;99.20;;;;;;4931411;28;90136;-74
2023/11/04 15:05:09;;;;;;;0.57;0.20;;;15.70;99.30;;;;;;4938591;28;87751;-74
2023/11/04 15:07:36;;;;;;;1.52;0.20;;;15.70;99.10;;;;;;4931150;28;88659;-73
2023/11/04 15:10:02;;;;;;;2.42;0.30;;;15.90;98.90;;;;;;4939348;28;88664;-71
2023/11/04 15:12:31;;;;;;;0.95;0.20;;;15.80;98.60;;;;;;4937899;28;91196;-72
2023/11/04 15:14:57;;;;;;;2.47;0.30;;;15.80;98.90;;;;;;4935531;28;89191;-72
2023/11/04 15:17:25;;;;;;;1.75;0.20;;;15.70;98.60;;;;;;4941814;28;89763;-73
2023/11/04 15:19:51;;;;;;;2.15;0.63;;;15.50;98.70;;;;;;4931750;28;88603;-74
2023/11/04 15:22:17;;;;;;;0.77;0.38;;;15.10;99.60;;;;;;4962764;28;91993;-72
2023/11/04 15:24:44;;;;;;;1.52;0.20;;;14.80;99.90;;;;;;4945487;28;88113;-73
2023/11/04 15:27:13;;;;;;;1.73;0.25;;;14.50;99.90;;;;;;4928082;28;90744;-71
2023/11/04 15:29:39;;;;;;;1.95;0.40;;;14.20;99.90;;;;;;4939626;28;92003;-72
2023/11/04 15:32:05;;;;;;;3.90;0.40;;;14.00;99.90;;;;;;4942789;28;87894;-73
2023/11/04 15:34:31;;;;;;;2.28;0.50;;;13.70;99.90;;;;;;4938248;28;88129;-73
2023/11/04 15:36:56;;;;;;;6.55;0.60;;;13.50;99.90;;;;;;4945869;28;90316;-72
2023/11/04 15:39:22;;;;;;;2.63;0.50;;;13.30;99.90;;;;;;4944452;28;91464;-73
2023/11/04 15:41:48;;;;;;;2.20;0.40;;;13.10;99.90;;;;;;4938806;28;92158;-73
2023/11/04 15:44:14;;;;;;;2.88;0.47;;;13.00;99.90;;;;;;4936431;28;87399;-72
2023/11/04 15:46:39;;;;;;;4.70;0.50;;;12.90;99.90;;;;;;4935333;28;90763;-72
2023/11/04 15:49:05;;;;;;;2.42;0.55;;;12.80;99.90;;;;;;4933234;28;89448;-73
2023/11/04 15:51:31;;;;;;;3.20;0.50;;;12.70;99.90;;;;;;4930815;28;90389;-73
2023/11/04 15:53:57;;;;;;;5.05;0.50;;;12.60;99.90;;;;;;4934561;28;88041;-74
2023/11/04 15:56:23;;;;;;;4.30;0.57;;;12.60;99.90;;;;;;4936995;28;90423;-73
2023/11/04 15:58:49;;;;;;;7.32;1.67;;;12.50;99.90;;;;;;4931671;28;90682;-72
2023/11/04 16:01:14;;;;;;;2.65;0.50;;;12.50;99.90;;;;;;4933391;28;91880;-74
2023/11/04 16:03:40;;;;;;;4.40;0.80;;;12.40;99.90;;;;;;4937103;28;89033;-72
2023/11/04 16:06:06;;;;;;;2.72;0.40;;;12.40;99.90;;;;;;4934167;28;90939;-74
2023/11/04 16:08:32;;;;;;;3.75;0.50;;;12.40;99.90;;;;;;4933524;28;91777;-74
2023/11/04 16:10:58;;;;;;;4.70;0.80;;;12.30;99.90;;;;;;4933807;28;88285;-72
2023/11/04 16:13:24;;;;;;;3.08;0.70;;;12.30;99.90;;;;;;4934379;28;87872;-72
2023/11/04 16:15:49;;;;;;;6.15;0.88;;;12.20;99.90;;;;;;4931825;28;91075;-73
2023/11/04 16:18:15;;;;;;;5.00;0.63;;;12.10;99.90;;;;;;4934009;28;91561;-72
2023/11/04 16:20:41;;;;;;;7.40;0.95;;;12.10;99.90;;;;;;4933642;28;91717;-73
2023/11/04 16:23:08;;;;;;;7.65;1.00;;;12.10;99.90;;;;;;4932874;28;87767;-73
2023/11/04 16:25:34;;;;;;;8.27;1.20;;;12.00;99.90;;;;;;4931527;28;91384;-72
2023/11/04 16:28:00;;;;;;;4.47;0.80;;;12.00;99.90;;;;;;4932204;28;91970;-73
2023/11/04 16:30:29;;;;;;;5.47;0.70;;;12.00;99.90;;;;;;4933746;28;90963;-71
2023/11/04 16:32:55;;;;;;;3.83;0.90;;;11.90;99.90;;;;;;4931884;28;87826;-73
2023/11/04 16:35:21;;;;;;;4.20;0.60;;;11.90;99.90;;;;;;4932346;28;88022;-74